Time;durP1;ratioP1;P1;durP2;ratioP2;P2;SDS_P1;SDS_P2;PMS_P1;PMS_P2;Temp;Humidity;BMP_temperature;BMP_pressure;BME280_temperature;BME280_humidity;BME280_pressure;Samples;Min_cycle;Max_cycle;Signal;HPM_P1;HPM_P2
2023/08/09 00:02:22;;;;;;;3.97;1.15;;;;;;;13.27;100.00;100374.41;5091090;28;20052;-69
2023/08/09 00:04:49;;;;;;;3.47;1.27;;;;;;;13.39;100.00;100385.22;5091331;28;20405;-69
2023/08/09 00:07:16;;;;;;;4.55;1.08;;;;;;;13.42;100.00;100371.91;5088978;28;20636;-69
2023/08/09 00:09:42;;;;;;;2.00;1.20;;;;;;;13.52;100.00;100378.34;5091635;28;20050;-69
2023/08/09 00:12:09;;;;;;;1.90;1.00;;;;;;;13.50;100.00;100385.47;5090550;28;20043;-69
2023/08/09 00:14:36;;;;;;;4.80;1.10;;;;;;;13.61;100.00;100382.25;5091557;28;20048;-69
2023/08/09 00:17:03;;;;;;;2.63;1.10;;;;;;;13.61;100.00;100384.88;5091635;28;20063;-69
2023/08/09 00:19:30;;;;;;;4.45;1.30;;;;;;;13.68;100.00;100381.81;5091801;28;20086;-69
2023/08/09 00:21:57;;;;;;;4.18;1.08;;;;;;;13.58;100.00;100378.03;5090212;28;20043;-69
2023/08/09 00:24:25;;;;;;;4.65;1.10;;;;;;;13.57;100.00;100378.09;5089583;28;20454;-69
2023/08/09 00:26:51;;;;;;;2.30;1.10;;;;;;;13.56;100.00;100379.88;5091149;28;20055;-69
2023/08/09 00:29:18;;;;;;;2.88;1.17;;;;;;;13.58;100.00;100372.75;5090862;28;20067;-69
2023/08/09 00:31:44;;;;;;;2.35;1.05;;;;;;;13.66;100.00;100372.31;5088564;28;20055;-70
2023/08/09 00:34:11;;;;;;;2.78;1.13;;;;;;;13.48;100.00;100377.66;5090441;28;20097;-69
2023/08/09 00:36:38;;;;;;;1.58;0.95;;;;;;;13.42;100.00;100378.03;5091208;28;20409;-69
2023/08/09 00:39:05;;;;;;;2.67;1.15;;;;;;;13.55;100.00;100387.88;5088274;28;21638;-69
2023/08/09 00:41:32;;;;;;;2.38;1.00;;;;;;;13.56;100.00;100392.19;5084456;28;20047;-69
2023/08/09 00:43:59;;;;;;;2.47;1.00;;;;;;;13.61;100.00;100390.97;5083208;28;20059;-69
2023/08/09 00:46:26;;;;;;;1.88;1.00;;;;;;;13.56;100.00;100384.28;5090623;28;20044;-69
2023/08/09 00:48:53;;;;;;;2.60;0.93;;;;;;;13.60;100.00;100388.47;5083540;28;20044;-69
2023/08/09 00:51:20;;;;;;;3.28;1.10;;;;;;;13.63;100.00;100383.00;5088475;28;20444;-70
2023/08/09 00:53:47;;;;;;;3.88;1.10;;;;;;;13.64;100.00;100389.97;5089467;28;20052;-69
2023/08/09 00:56:14;;;;;;;1.70;1.00;;;;;;;13.64;100.00;100393.44;5090408;28;20056;-69
2023/08/09 00:58:41;;;;;;;2.25;1.02;;;;;;;13.55;100.00;100395.75;5089983;28;20044;-69
2023/08/09 01:01:08;;;;;;;1.58;0.90;;;;;;;13.61;100.00;100396.25;5085455;28;20040;-69
2023/08/09 01:03:36;;;;;;;2.33;1.00;;;;;;;13.57;100.00;100391.25;5089055;28;20109;-69
2023/08/09 01:06:08;;;;;;;2.38;1.00;;;;;;;13.53;100.00;100382.69;5089830;28;20122;-69
2023/08/09 01:08:44;;;;;;;3.47;1.17;;;;;;;13.61;100.00;100393.63;5089548;28;20044;-69
2023/08/09 01:11:32;;;;;;;4.20;1.10;;;;;;;13.72;100.00;100398.28;5080903;28;20051;-70
2023/08/09 01:14:00;;;;;;;2.55;1.02;;;;;;;13.62;100.00;100389.22;5074043;28;20047;-70
2023/08/09 01:16:27;;;;;;;3.50;0.93;;;;;;;13.58;100.00;100380.66;5090142;28;20052;-69
2023/08/09 01:18:58;;;;;;;4.63;1.10;;;;;;;13.77;100.00;100398.03;5088058;28;20052;-70
2023/08/09 01:21:36;;;;;;;2.28;0.90;;;;;;;13.78;100.00;100395.31;5086732;28;20052;-69
2023/08/09 01:24:03;;;;;;;2.38;0.90;;;;;;;13.68;100.00;100381.81;5090088;28;20048;-69
2023/08/09 01:26:30;;;;;;;2.55;0.98;;;;;;;13.77;100.00;100376.97;5088032;28;20059;-69
2023/08/09 01:28:57;;;;;;;2.30;0.90;;;;;;;13.77;100.00;100383.06;5084553;28;20129;-69
2023/08/09 01:31:23;;;;;;;4.20;1.10;;;;;;;13.63;100.00;100367.22;5083528;28;20044;-69
2023/08/09 01:33:50;;;;;;;4.90;1.33;;;;;;;13.67;100.00;100376.66;5087367;28;20497;-70
2023/08/09 01:36:23;;;;;;;2.55;1.00;;;;;;;13.72;100.00;100377.22;5089007;28;20048;-69
2023/08/09 01:39:04;;;;;;;2.95;0.98;;;;;;;13.73;100.00;100393.88;5087501;28;20062;-69
2023/08/09 01:41:34;;;;;;;3.13;1.10;;;;;;;13.67;100.00;100390.66;5085330;28;20051;-70
2023/08/09 01:44:03;;;;;;;3.47;1.02;;;;;;;13.74;100.00;100399.06;5089794;28;20062;-69
2023/08/09 01:46:31;;;;;;;2.22;0.90;;;;;;;13.70;100.00;100399.31;5090077;28;20044;-69
2023/08/09 01:49:14;;;;;;;2.50;1.05;;;;;;;13.77;100.00;100395.41;5088425;28;20052;-69
2023/08/09 01:51:41;;;;;;;3.95;1.00;;;;;;;13.67;100.00;100400.34;5087666;28;20400;-69
2023/08/09 01:54:08;;;;;;;2.35;1.00;;;;;;;13.79;100.00;100398.78;5088260;28;20056;-69
2023/08/09 01:56:35;;;;;;;3.38;1.13;;;;;;;13.73;100.00;100397.34;5074007;28;20309;-69
2023/08/09 01:59:04;;;;;;;3.40;1.13;;;;;;;13.73;100.00;100394.72;5089790;28;20083;-69
2023/08/09 02:01:31;;;;;;;2.35;0.90;;;;;;;13.76;100.00;100399.81;5089356;28;20432;-69
2023/08/09 02:03:58;;;;;;;4.20;1.02;;;;;;;13.68;100.00;100400.22;5089673;28;20525;-69
2023/08/09 02:06:25;;;;;;;1.38;0.90;;;;;;;13.57;100.00;100383.38;5088780;28;20048;-69
2023/08/09 02:08:51;;;;;;;2.58;1.00;;;;;;;13.67;100.00;100392.44;5077132;28;20043;-69
2023/08/09 02:11:18;;;;;;;2.42;0.98;;;;;;;13.60;100.00;100391.09;5088634;28;20048;-69
2023/08/09 02:13:45;;;;;;;2.53;1.00;;;;;;;13.68;100.00;100402.84;5089631;28;20071;-69
2023/08/09 02:16:12;;;;;;;3.30;0.90;;;;;;;13.61;100.00;100411.19;5089465;28;20049;-69
2023/08/09 02:18:39;;;;;;;1.88;1.00;;;;;;;13.63;100.00;100406.69;5090301;28;20109;-69
2023/08/09 02:21:05;;;;;;;3.70;1.10;;;;;;;13.51;100.00;100400.34;5089554;28;20043;-69
2023/08/09 02:23:32;;;;;;;3.95;1.00;;;;;;;13.68;100.00;100412.53;5092887;28;20056;-69
2023/08/09 02:25:59;;;;;;;4.05;1.00;;;;;;;13.72;100.00;100410.59;5093213;28;20051;-69
2023/08/09 02:28:25;;;;;;;1.50;0.80;;;;;;;13.73;100.00;100412.28;5093766;28;20055;-69
2023/08/09 02:30:53;;;;;;;1.95;0.85;;;;;;;13.66;100.00;100415.25;5083458;28;20063;-69
2023/08/09 02:33:20;;;;;;;2.78;1.02;;;;;;;13.64;100.00;100400.50;5093143;28;20094;-69
2023/08/09 02:35:58;;;;;;;3.00;0.98;;;;;;;13.76;100.00;100409.50;5093857;28;20052;-69
2023/08/09 02:38:26;;;;;;;1.75;0.90;;;;;;;13.67;100.00;100411.69;5093985;28;20101;-69
2023/08/09 02:40:53;;;;;;;3.63;1.00;;;;;;;13.59;100.00;100395.47;5092098;28;20453;-69
2023/08/09 02:43:24;;;;;;;1.85;0.90;;;;;;;13.76;100.00;100420.88;5084047;28;20686;-69
2023/08/09 02:45:52;;;;;;;1.88;0.90;;;;;;;13.59;100.00;100402.53;5077276;28;20240;-69
2023/08/09 02:48:19;;;;;;;1.50;0.85;;;;;;;13.59;100.00;100416.53;5090566;28;20105;-69
2023/08/09 02:50:46;;;;;;;2.88;0.88;;;;;;;13.59;100.00;100418.31;5090057;28;20043;-69
2023/08/09 02:53:14;;;;;;;3.55;0.90;;;;;;;13.65;100.00;100423.22;5071750;28;20043;-69
2023/08/09 02:55:42;;;;;;;2.47;1.00;;;;;;;13.63;100.00;100411.94;5072148;28;20073;-70
2023/08/09 02:58:09;;;;;;;3.92;1.00;;;;;;;13.64;100.00;100416.28;5086567;28;20052;-69
2023/08/09 03:00:36;;;;;;;2.40;0.90;;;;;;;13.53;100.00;100418.63;5085213;28;20051;-69
2023/08/09 03:03:06;;;;;;;3.67;0.98;;;;;;;13.53;100.00;100411.63;5077420;28;20059;-69
2023/08/09 03:05:35;;;;;;;2.05;0.90;;;;;;;13.46;100.00;100405.00;5072972;28;20049;-69
2023/08/09 03:08:02;;;;;;;5.57;1.10;;;;;;;13.19;100.00;100412.56;5086276;28;20048;-69
2023/08/09 03:10:30;;;;;;;3.67;1.30;;;;;;;13.34;100.00;100401.25;5077658;28;20126;-69
2023/08/09 03:12:57;;;;;;;3.72;1.10;;;;;;;13.23;100.00;100393.91;5076388;28;20405;-69
2023/08/09 03:15:24;;;;;;;3.10;1.00;;;;;;;13.32;100.00;100397.03;5087522;28;20405;-69
2023/08/09 03:17:50;;;;;;;1.63;1.00;;;;;;;13.31;100.00;100396.16;5089821;28;20056;-69
2023/08/09 03:20:17;;;;;;;4.53;1.02;;;;;;;13.17;100.00;100391.59;5078131;28;20058;-69
2023/08/09 03:22:45;;;;;;;3.28;1.17;;;;;;;13.21;100.00;100394.91;5081904;28;20409;-69
2023/08/09 03:25:12;;;;;;;5.80;1.10;;;;;;;13.22;100.00;100386.09;5083219;28;20139;-70
2023/08/09 03:27:40;;;;;;;2.78;1.20;;;;;;;13.17;100.00;100396.03;5092179;28;20135;-69
2023/08/09 03:30:08;;;;;;;2.58;1.00;;;;;;;13.14;100.00;100394.41;5080659;28;20052;-69
2023/08/09 03:32:36;;;;;;;3.17;1.08;;;;;;;13.19;100.00;100392.41;5091443;28;20047;-69
2023/08/09 03:35:04;;;;;;;4.18;1.10;;;;;;;13.13;100.00;100382.19;5092481;28;20478;-69
2023/08/09 03:37:31;;;;;;;2.45;1.00;;;;;;;13.16;100.00;100383.81;5092446;28;20050;-69
2023/08/09 03:39:58;;;;;;;6.45;1.10;;;;;;;13.15;100.00;100382.13;5092224;28;20722;-69
2023/08/09 03:42:24;;;;;;;2.33;1.00;;;;;;;13.15;100.00;100382.13;5091140;28;20040;-70
2023/08/09 03:44:51;;;;;;;1.67;1.00;;;;;;;13.18;100.00;100388.06;5090513;28;20040;-69
2023/08/09 03:47:17;;;;;;;3.13;1.00;;;;;;;13.12;100.00;100393.66;5091743;28;20052;-70
2023/08/09 03:49:45;;;;;;;3.42;1.08;;;;;;;13.13;100.00;100407.63;5092364;28;20093;-69
2023/08/09 03:52:12;;;;;;;0.93;0.80;;;;;;;13.15;100.00;100396.09;5089817;28;20048;-69
2023/08/09 03:54:39;;;;;;;2.65;0.95;;;;;;;13.26;100.00;100399.03;5077760;28;20040;-69
2023/08/09 03:57:06;;;;;;;2.03;0.98;;;;;;;13.29;100.00;100398.00;5087587;28;20055;-69
2023/08/09 03:59:33;;;;;;;3.03;1.00;;;;;;;13.24;100.00;100381.63;5077534;28;20097;-69
2023/08/09 04:02:00;;;;;;;1.73;0.90;;;;;;;13.36;100.00;100411.69;5090340;28;20097;-69
2023/08/09 04:04:27;;;;;;;2.00;0.85;;;;;;;13.40;100.00;100418.47;5090998;28;20532;-69
2023/08/09 04:06:55;;;;;;;2.85;0.93;;;;;;;13.36;100.00;100417.78;5074717;28;20126;-69
2023/08/09 04:09:21;;;;;;;4.93;1.10;;;;;;;13.28;100.00;100427.84;5091605;28;20703;-69
2023/08/09 04:11:48;;;;;;;2.15;1.00;;;;;;;13.31;100.00;100425.06;5090710;28;20495;-69
2023/08/09 04:14:15;;;;;;;2.28;1.00;;;;;;;13.25;100.00;100441.16;5090737;28;20533;-69
2023/08/09 04:16:41;;;;;;;6.53;1.20;;;;;;;13.27;100.00;100441.94;5088692;28;20052;-69
2023/08/09 04:19:08;;;;;;;2.72;0.93;;;;;;;13.26;100.00;100435.81;5089907;28;20047;-69
2023/08/09 04:21:35;;;;;;;2.78;1.20;;;;;;;13.29;100.00;100447.94;5090647;28;20070;-69
2023/08/09 04:24:01;;;;;;;2.67;1.00;;;;;;;13.35;100.00;100450.28;5090956;28;20369;-69
2023/08/09 04:26:28;;;;;;;4.18;1.13;;;;;;;13.37;100.00;100460.69;5090315;28;20489;-69
2023/08/09 04:28:55;;;;;;;2.10;1.10;;;;;;;13.40;100.00;100469.31;5091136;28;20059;-69
2023/08/09 04:31:21;;;;;;;5.32;1.13;;;;;;;13.51;100.00;100470.47;5090671;28;20379;-69
2023/08/09 04:33:51;;;;;;;1.73;0.82;;;;;;;13.46;100.00;100455.81;5091039;28;20048;-69
2023/08/09 04:36:18;;;;;;;2.80;1.00;;;;;;;13.39;100.00;100464.13;5091392;28;20086;-69
2023/08/09 04:38:46;;;;;;;3.00;1.15;;;;;;;13.46;100.00;100476.84;5089679;28;20055;-69
2023/08/09 04:41:13;;;;;;;4.20;1.10;;;;;;;13.44;100.00;100486.59;5090700;28;20044;-69
2023/08/09 04:43:44;;;;;;;3.45;1.05;;;;;;;13.45;100.00;100480.41;5089930;28;20040;-70
2023/08/09 04:46:12;;;;;;;2.53;1.20;;;;;;;13.41;100.00;100472.78;5090296;28;20486;-69
2023/08/09 04:48:40;;;;;;;3.33;0.93;;;;;;;13.32;100.00;100466.22;5090383;28;20048;-69
2023/08/09 04:51:08;;;;;;;4.53;1.20;;;;;;;13.25;100.00;100477.97;5090358;28;20051;-69
2023/08/09 04:53:36;;;;;;;2.92;1.00;;;;;;;13.33;100.00;100486.31;5089954;28;20488;-69
2023/08/09 04:56:03;;;;;;;5.20;1.42;;;;;;;13.36;100.00;100477.44;5090975;28;20052;-69
2023/08/09 04:58:30;;;;;;;8.40;1.35;;;;;;;13.33;100.00;100480.22;5090091;28;20070;-70
2023/08/09 05:00:58;;;;;;;3.40;1.10;;;;;;;13.44;100.00;100488.41;5088072;28;20440;-69
2023/08/09 05:03:24;;;;;;;1.90;0.90;;;;;;;13.44;100.00;100485.78;5090838;28;20058;-69
2023/08/09 05:05:51;;;;;;;4.53;1.20;;;;;;;13.45;100.00;100493.56;5090759;28;20501;-69
2023/08/09 05:08:18;;;;;;;3.03;1.23;;;;;;;13.53;100.00;100489.66;5090605;28;20048;-69
2023/08/09 05:10:44;;;;;;;6.05;1.92;;;;;;;13.47;100.00;100459.28;5086169;28;20071;-69
2023/08/09 05:13:11;;;;;;;2.63;1.05;;;;;;;13.68;100.00;100486.19;5089655;28;20052;-69
2023/08/09 05:15:38;;;;;;;3.17;1.13;;;;;;;13.79;100.00;100491.75;5089660;28;20389;-69
2023/08/09 05:18:05;;;;;;;3.90;1.23;;;;;;;13.85;100.00;100495.81;5090372;28;20466;-69
2023/08/09 05:20:31;;;;;;;3.70;1.10;;;;;;;13.79;100.00;100494.38;5090867;28;20059;-70
2023/08/09 05:22:58;;;;;;;3.55;1.05;;;;;;;13.74;100.00;100492.91;5089837;28;20040;-69
2023/08/09 05:25:25;;;;;;;1.88;0.90;;;;;;;13.84;100.00;100491.47;5090525;28;20059;-69
2023/08/09 05:27:51;;;;;;;3.78;1.10;;;;;;;13.94;100.00;100492.66;5089400;28;20719;-69
2023/08/09 05:30:20;;;;;;;4.55;1.17;;;;;;;13.75;100.00;100503.34;5075706;28;20059;-69
2023/08/09 05:32:47;;;;;;;3.42;1.33;;;;;;;13.72;100.00;100493.00;5088537;28;20047;-70
2023/08/09 05:35:14;;;;;;;4.18;1.20;;;;;;;13.83;100.00;100497.69;5090196;28;20091;-70
2023/08/09 05:37:41;;;;;;;4.90;1.27;;;;;;;13.86;100.00;100486.97;5090119;28;20413;-70
2023/08/09 05:40:09;;;;;;;3.00;1.17;;;;;;;13.97;100.00;100500.41;5078758;28;20063;-70
2023/08/09 05:42:36;;;;;;;5.22;1.23;;;;;;;13.86;100.00;100501.00;5084299;28;20056;-70
2023/08/09 05:45:04;;;;;;;6.18;1.50;;;;;;;13.85;100.00;100498.44;5079899;28;20044;-70
2023/08/09 05:47:30;;;;;;;2.47;1.20;;;;;;;13.85;100.00;100495.81;5085471;28;20138;-70
2023/08/09 05:49:57;;;;;;;4.32;1.10;;;;;;;13.90;100.00;100506.06;5077001;28;20060;-70
2023/08/09 05:52:24;;;;;;;4.75;1.20;;;;;;;13.91;100.00;100511.25;5080586;28;20418;-70
2023/08/09 05:54:50;;;;;;;3.30;1.23;;;;;;;13.83;100.00;100518.75;5085349;28;20051;-70
2023/08/09 05:57:17;;;;;;;3.38;1.20;;;;;;;13.81;100.00;100520.59;5083504;28;20052;-70
2023/08/09 05:59:44;;;;;;;5.45;1.30;;;;;;;13.67;100.00;100527.47;5083139;28;20485;-70
2023/08/09 06:02:10;;;;;;;3.75;1.35;;;;;;;13.90;100.00;100530.63;5079983;28;20394;-70
2023/08/09 06:04:37;;;;;;;5.30;1.48;;;;;;;13.77;100.00;100526.94;5079544;28;20443;-70
2023/08/09 06:07:05;;;;;;;3.40;1.30;;;;;;;13.90;100.00;100537.66;5087581;28;20405;-70
2023/08/09 06:09:31;;;;;;;2.97;1.13;;;;;;;13.85;100.00;100536.13;5078123;28;20053;-70
2023/08/09 06:12:16;;;;;;;4.05;1.27;;;;;;;13.78;100.00;100542.66;5075571;28;20105;-70
2023/08/09 06:14:42;;;;;;;3.70;1.40;;;;;;;13.77;100.00;100540.13;5082683;28;20077;-70
2023/08/09 06:17:09;;;;;;;3.25;1.08;;;;;;;13.64;100.00;100540.78;5075641;28;20144;-70
2023/08/09 06:19:36;;;;;;;6.00;1.50;;;;;;;13.96;100.00;100542.59;5092491;28;20447;-70
2023/08/09 06:22:03;;;;;;;5.28;1.52;;;;;;;13.86;100.00;100545.75;5090578;28;20133;-70
2023/08/09 06:24:31;;;;;;;5.22;1.30;;;;;;;13.80;100.00;100545.22;5090870;28;20059;-70
2023/08/09 06:26:58;;;;;;;3.42;1.00;;;;;;;13.88;100.00;100556.16;5093425;28;20048;-70
2023/08/09 06:29:25;;;;;;;2.30;1.08;;;;;;;13.69;100.00;100551.06;5080981;28;20052;-70
2023/08/09 06:31:52;;;;;;;2.47;1.20;;;;;;;13.85;100.00;100557.19;5089852;28;20084;-70
2023/08/09 06:34:18;;;;;;;4.35;1.20;;;;;;;13.95;100.00;100557.56;5075404;28;20110;-70
2023/08/09 06:36:46;;;;;;;4.72;1.15;;;;;;;14.04;100.00;100572.84;5081812;28;20502;-70
2023/08/09 06:39:13;;;;;;;3.38;1.40;;;;;;;14.14;100.00;100567.91;5079952;28;20059;-70
2023/08/09 06:41:40;;;;;;;5.50;1.85;;;;;;;14.13;100.00;100566.22;5090799;28;20485;-70
2023/08/09 06:44:07;;;;;;;4.53;1.50;;;;;;;14.17;100.00;100574.78;5089121;28;20165;-70
2023/08/09 06:46:33;;;;;;;6.22;1.30;;;;;;;14.30;100.00;100564.44;5075667;28;20458;-70
2023/08/09 06:49:00;;;;;;;5.25;1.23;;;;;;;14.36;100.00;100566.69;5075771;28;20170;-70
2023/08/09 06:51:27;;;;;;;3.67;1.30;;;;;;;14.34;100.00;100584.38;5110804;27;20139;-70
2023/08/09 06:53:54;;;;;;;2.45;0.98;;;;;;;14.51;100.00;100584.28;5075957;28;20064;-70
2023/08/09 06:56:20;;;;;;;2.85;1.05;;;;;;;14.44;100.00;100585.56;5085549;28;20086;-70
2023/08/09 06:58:47;;;;;;;5.38;1.33;;;;;;;14.63;100.00;100581.94;5086223;28;20056;-70
2023/08/09 07:01:14;;;;;;;4.60;1.33;;;;;;;14.68;100.00;100588.66;5083298;28;20048;-70
2023/08/09 07:03:44;;;;;;;3.28;1.23;;;;;;;14.56;100.00;100597.22;5083151;28;20363;-70
2023/08/09 07:06:11;;;;;;;2.83;1.30;;;;;;;14.65;100.00;100591.44;5085911;28;20043;-70
2023/08/09 07:08:38;;;;;;;4.15;1.13;;;;;;;14.42;100.00;100603.25;5082959;28;20529;-70
2023/08/09 07:11:04;;;;;;;4.13;1.27;;;;;;;14.53;100.00;100606.13;5092613;28;20044;-70
2023/08/09 07:13:32;;;;;;;3.35;1.20;;;;;;;14.77;100.00;100614.47;5078050;28;20049;-70
2023/08/09 07:15:59;;;;;;;1.98;1.00;;;;;;;14.68;100.00;100615.00;5092576;28;20052;-70
2023/08/09 07:18:26;;;;;;;4.20;1.30;;;;;;;14.44;100.00;100604.00;5087617;28;20044;-70
2023/08/09 07:20:53;;;;;;;4.65;1.27;;;;;;;14.80;100.00;100616.06;5082728;28;20126;-70
2023/08/09 07:23:20;;;;;;;2.78;1.02;;;;;;;15.09;100.00;100618.81;5077442;28;20485;-70
2023/08/09 07:26:07;;;;;;;3.67;1.20;;;;;;;15.06;100.00;100617.19;5080857;28;20079;-70
2023/08/09 07:28:33;;;;;;;5.30;1.27;;;;;;;15.00;100.00;100626.31;5088069;28;20044;-70
2023/08/09 07:31:00;;;;;;;4.05;1.30;;;;;;;15.13;100.00;100636.16;5076899;28;20054;-70
2023/08/09 07:33:27;;;;;;;2.58;0.98;;;;;;;15.49;100.00;100629.63;5084887;28;20048;-69
2023/08/09 07:35:54;;;;;;;5.30;1.45;;;;;;;15.44;100.00;100624.66;5081952;28;20071;-69
2023/08/09 07:38:21;;;;;;;3.88;1.20;;;;;;;15.83;100.00;100632.91;5081010;28;20053;-70
2023/08/09 07:40:48;;;;;;;5.10;1.30;;;;;;;15.61;100.00;100635.97;5097067;28;20101;-69
2023/08/09 07:43:14;;;;;;;5.13;1.40;;;;;;;15.48;100.00;100631.44;5088048;28;20049;-70
2023/08/09 07:45:45;;;;;;;4.95;1.35;;;;;;;15.39;100.00;100629.34;5078451;28;20049;-70
2023/08/09 07:48:12;;;;;;;6.03;1.30;;;;;;;15.47;100.00;100631.53;5081880;28;20093;-69
2023/08/09 07:50:39;;;;;;;4.78;1.30;;;;;;;15.57;100.00;100640.59;5074681;28;20561;-69
2023/08/09 07:53:06;;;;;;;5.43;1.33;;;;;;;16.04;100.00;100646.59;5084960;28;20045;-70
2023/08/09 07:55:34;;;;;;;3.88;1.33;;;;;;;15.85;100.00;100647.72;5072210;28;20425;-69
2023/08/09 07:58:00;;;;;;;4.30;1.17;;;;;;;15.88;100.00;100636.13;5082563;28;20051;-69
2023/08/09 08:00:27;;;;;;;4.00;1.23;;;;;;;16.58;100.00;100625.56;5084105;28;20060;-69
2023/08/09 08:03:13;;;;;;;4.13;1.23;;;;;;;16.94;100.00;100647.09;5076914;28;20048;-70
2023/08/09 08:05:40;;;;;;;4.93;1.10;;;;;;;17.09;100.00;100654.00;5079598;28;20490;-71
2023/08/09 08:08:07;;;;;;;5.43;1.05;;;;;;;16.87;100.00;100642.22;5075097;28;20051;-69
2023/08/09 08:10:34;;;;;;;4.22;1.08;;;;;;;17.24;100.00;100638.91;5073339;28;20500;-70
2023/08/09 08:13:00;;;;;;;5.65;1.42;;;;;;;17.12;100.00;100651.13;5082939;28;20055;-70
2023/08/09 08:15:27;;;;;;;2.80;1.00;;;;;;;17.09;100.00;100646.06;5082229;28;20056;-70
2023/08/09 08:17:55;;;;;;;3.20;1.00;;;;;;;17.08;100.00;100650.50;5086601;28;20591;-69
2023/08/09 08:20:22;;;;;;;4.00;1.27;;;;;;;17.48;100.00;100657.59;5082554;28;20056;-70
2023/08/09 08:22:49;;;;;;;2.35;0.90;;;;;;;17.49;100.00;100658.41;5081360;28;20056;-70
2023/08/09 08:25:19;;;;;;;4.15;1.20;;;;;;;17.77;100.00;100658.22;5076535;28;20055;-70
2023/08/09 08:27:46;;;;;;;3.75;1.10;;;;;;;17.99;100.00;100665.56;5090171;28;20143;-70
2023/08/09 08:30:16;;;;;;;2.38;1.00;;;;;;;17.80;100.00;100676.56;5085493;28;20093;-70
2023/08/09 08:32:46;;;;;;;4.05;1.17;;;;;;;17.92;100.00;100671.38;5084772;28;20076;-69
2023/08/09 08:35:13;;;;;;;4.65;0.90;;;;;;;18.30;100.00;100687.25;5082885;28;20056;-69
2023/08/09 08:37:41;;;;;;;3.20;1.00;;;;;;;17.86;100.00;100685.06;5070258;28;20452;-69
2023/08/09 08:40:21;;;;;;;3.17;1.15;;;;;;;18.16;100.00;100688.22;5080085;28;20044;-68
2023/08/09 08:42:49;;;;;;;4.05;0.90;;;;;;;18.49;100.00;100691.25;5088579;28;20040;-69
2023/08/09 08:45:16;;;;;;;4.35;1.20;;;;;;;17.52;100.00;100687.34;5089155;28;20048;-69
2023/08/09 08:47:44;;;;;;;5.93;1.23;;;;;;;18.14;100.00;100703.38;5073012;28;20455;-69
2023/08/09 08:50:14;;;;;;;4.15;1.08;;;;;;;17.86;100.00;100695.66;5076379;28;20109;-69
2023/08/09 08:52:51;;;;;;;4.75;1.30;;;;;;;17.38;100.00;100714.72;5076191;28;20055;-71
2023/08/09 08:55:18;;;;;;;4.43;1.02;;;;;;;17.48;100.00;100704.38;5072445;28;20611;-69
2023/08/09 08:57:46;;;;;;;3.42;1.30;;;;;;;18.03;100.00;100690.03;5088606;28;20055;-69
2023/08/09 09:00:17;;;;;;;4.85;1.08;;;;;;;17.79;100.00;100705.78;5074384;28;20484;-68
2023/08/09 09:02:47;;;;;;;6.57;1.15;;;;;;;17.74;100.00;100714.06;5084403;28;20060;-68
2023/08/09 09:05:19;;;;;;;3.70;1.08;;;;;;;17.61;100.00;100705.25;5079977;28;20470;-68
2023/08/09 09:07:50;;;;;;;2.72;0.90;;;;;;;17.93;100.00;100705.72;5088595;28;20044;-68
2023/08/09 09:10:19;;;;;;;4.93;0.97;;;;;;;18.50;100.00;100706.19;5081529;28;20059;-68
2023/08/09 09:12:50;;;;;;;4.32;1.33;;;;;;;18.16;100.00;100705.94;5080436;28;20328;-68
2023/08/09 09:15:18;;;;;;;4.15;1.00;;;;;;;18.64;100.00;100706.03;5076118;28;20052;-69
2023/08/09 09:17:45;;;;;;;5.05;1.00;;;;;;;18.08;100.00;100719.72;5078118;28;20050;-68
2023/08/09 09:20:15;;;;;;;4.40;1.08;;;;;;;17.99;100.00;100717.72;5087947;28;20541;-69
2023/08/09 09:22:41;;;;;;;6.18;1.40;;;;;;;18.08;100.00;100709.13;5082203;28;20404;-67
2023/08/09 09:25:11;;;;;;;3.65;1.05;;;;;;;18.37;100.00;100719.47;5088789;28;20052;-69
2023/08/09 09:27:40;;;;;;;4.53;0.90;;;;;;;18.46;100.00;100726.75;5087413;28;20071;-69
2023/08/09 09:30:14;;;;;;;4.15;1.25;;;;;;;18.39;100.00;100725.50;5089868;28;20059;-69
2023/08/09 09:33:02;;;;;;;2.80;0.85;;;;;;;18.71;100.00;100720.56;5086486;28;20056;-69
2023/08/09 09:35:31;;;;;;;5.55;1.35;;;;;;;17.82;100.00;100719.66;5079227;28;20056;-69
2023/08/09 09:38:00;;;;;;;4.55;1.20;;;;;;;18.15;100.00;100715.69;5086421;28;20040;-68
2023/08/09 09:40:34;;;;;;;3.67;1.05;;;;;;;17.88;100.00;100712.28;5078684;28;20132;-69
2023/08/09 09:43:01;;;;;;;2.75;0.95;;;;;;;18.02;100.00;100707.75;5086645;28;20130;-69
2023/08/09 09:45:30;;;;;;;3.22;1.00;;;;;;;18.15;100.00;100705.09;5075897;28;20048;-68
2023/08/09 09:48:02;;;;;;;4.13;1.10;;;;;;;18.08;100.00;100711.78;5074415;28;20051;-68
2023/08/09 09:50:31;;;;;;;3.30;1.00;;;;;;;18.19;100.00;100716.31;5086382;28;20044;-67
2023/08/09 09:52:59;;;;;;;2.85;1.00;;;;;;;17.90;100.00;100705.94;5077898;28;20571;-68
2023/08/09 09:55:28;;;;;;;5.70;1.15;;;;;;;18.31;100.00;100726.06;5077723;28;20056;-66
2023/08/09 09:57:56;;;;;;;3.70;0.90;;;;;;;18.43;100.00;100726.97;5077888;28;20049;-67
2023/08/09 10:00:27;;;;;;;3.03;0.93;;;;;;;18.48;100.00;100735.44;5081178;28;20131;-68
2023/08/09 10:02:59;;;;;;;5.95;0.93;;;;;;;18.65;100.00;100733.44;5082328;28;20128;-67
2023/08/09 10:05:46;;;;;;;5.68;1.00;;;;;;;18.78;100.00;100729.75;5081575;28;20074;-68
2023/08/09 10:08:13;;;;;;;4.65;1.27;;;;;;;18.91;99.76;100734.22;5078368;28;20053;-68
2023/08/09 10:10:43;;;;;;;2.83;0.93;;;;;;;19.08;95.17;100736.47;5084057;28;20481;-68
2023/08/09 10:13:14;;;;;;;2.78;1.00;;;;;;;18.85;96.48;100729.38;5074668;28;20060;-68
2023/08/09 10:15:46;;;;;;;3.50;1.00;;;;;;;18.91;95.20;100719.16;5080156;28;20105;-68
2023/08/09 10:18:25;;;;;;;4.63;1.13;;;;;;;19.04;90.53;100729.72;5074776;28;20143;-68
2023/08/09 10:20:55;;;;;;;3.92;1.20;;;;;;;19.00;95.99;100727.38;5077075;28;20077;-68
2023/08/09 10:23:24;;;;;;;2.35;0.80;;;;;;;19.14;92.88;100732.53;5085762;28;20041;-68
2023/08/09 10:25:52;;;;;;;4.32;1.13;;;;;;;18.94;83.94;100726.03;5075110;28;20053;-68
2023/08/09 10:28:40;;;;;;;2.85;0.98;;;;;;;18.65;82.89;100755.47;5088909;28;20378;-67
2023/08/09 10:31:07;;;;;;;5.90;0.90;;;;;;;18.42;78.19;100735.06;5079313;28;20048;-69
2023/08/09 10:33:35;;;;;;;3.30;1.02;;;;;;;17.92;83.08;100749.06;5078234;28;20044;-68
2023/08/09 10:36:02;;;;;;;3.45;1.00;;;;;;;18.28;87.94;100749.28;5088750;28;20550;-68
2023/08/09 10:38:32;;;;;;;1.92;0.90;;;;;;;18.54;83.11;100742.16;5078584;28;20378;-68
2023/08/09 10:41:12;;;;;;;3.45;0.90;;;;;;;18.52;83.63;100733.44;5079194;28;20047;-68
2023/08/09 10:43:39;;;;;;;2.83;1.00;;;;;;;18.67;83.29;100750.06;5082162;28;20048;-68
2023/08/09 10:46:24;;;;;;;2.95;0.85;;;;;;;18.85;80.43;100740.81;5074132;28;20082;-68
2023/08/09 10:48:52;;;;;;;3.25;0.95;;;;;;;18.86;78.63;100744.34;5090032;28;20040;-64
2023/08/09 10:51:23;;;;;;;2.58;0.93;;;;;;;18.94;76.82;100731.34;5075150;28;20406;-69
2023/08/09 10:54:05;;;;;;;1.25;0.70;;;;;;;18.49;75.81;100726.56;5072018;28;20044;-68
2023/08/09 10:56:35;;;;;;;4.55;0.88;;;;;;;18.99;74.36;100734.50;5071899;28;20045;-68
2023/08/09 10:59:10;;;;;;;3.85;0.98;;;;;;;18.91;73.36;100745.69;5073907;28;20051;-68
2023/08/09 11:01:37;;;;;;;3.50;0.90;;;;;;;18.33;73.89;100741.84;5073304;28;20044;-68
2023/08/09 11:04:06;;;;;;;3.33;1.00;;;;;;;18.50;74.56;100749.47;5079511;28;20040;-68
2023/08/09 11:06:38;;;;;;;3.47;1.10;;;;;;;18.65;72.94;100747.53;5083093;28;20044;-68
2023/08/09 11:09:09;;;;;;;3.22;1.00;;;;;;;18.78;76.81;100744.84;5076695;28;20047;-68
2023/08/09 11:11:37;;;;;;;3.55;1.02;;;;;;;18.51;75.79;100743.19;5078186;28;20083;-68
2023/08/09 11:14:04;;;;;;;3.67;1.05;;;;;;;18.65;78.59;100744.88;5077714;28;20044;-68
2023/08/09 11:16:32;;;;;;;3.65;1.00;;;;;;;18.47;75.47;100739.06;5078565;28;20062;-68
2023/08/09 11:19:05;;;;;;;4.18;0.90;;;;;;;18.85;77.03;100746.13;5084668;28;20047;-68
2023/08/09 11:21:50;;;;;;;4.43;1.02;;;;;;;19.34;83.76;100747.00;5085177;28;20087;-68
2023/08/09 11:24:19;;;;;;;3.58;1.05;;;;;;;19.38;74.01;100737.00;5071313;28;20048;-68
2023/08/09 11:26:52;;;;;;;4.60;0.98;;;;;;;19.36;67.63;100755.69;5085083;28;20446;-68